マレ の空港の天気 - METARとTAF

マレ国際空港 ( VRMM / MLE ) - モルディブ Hulhule Island, North Male Atoll
飛行場実況気象(Metar)
観測時間10/16 12:00 MVT (10/16 07:00 UTC)
風向・風速西北西 4m/s
視程10km以上
天気現象
少しの雲 雲底高度 520m
少しの雲 雲底高度 550m
全天の4割程度の雲 雲底高度 3350m
全天の8割程度の雲 雲底高度 7920m
気温28℃
湿度84%
気圧1009hPa
METARVRMM 160700Z 29007KT 9999 FEW017 FEW018CB SCT110 BKN260 28/25 Q1009 CB NNW TEMPO 3000 TSRA
過去の天気等 Google飛行場航空写真 Wunderground天気予報

過去48時間のMETAR

飛行場予報(TAF)
発表時間: 10/16 10:00 MVT (10/16 05:00 UTC)
予報対象時間: 16日11時 MVT ~ 17日17時 MVT
風向・風速北西 3m/s
視程10km以上
少しの塔状積雲 雲底高度 550m
全天の4割程度の雲 雲底高度 3660m
16日11時 MVT ~ 16日17時 MVT に一時的に
視程4000m
天気現象しゅう雨
少しの積乱雲 雲底高度 520m
全天の8割程度の雲 雲底高度 3350m
TAF VRMM 160500Z 1606/1712 31006KT 9999 FEW018TCU SCT120
TEMPO 1606/1612 4000 SHRA FEW017CB BKN110